Time;durP1;ratioP1;P1;durP2;ratioP2;P2;SDS_P1;SDS_P2;PMS_P1;PMS_P2;Temp;Humidity;BMP_temperature;BMP_pressure;BME280_temperature;BME280_humidity;BME280_pressure;Samples;Min_cycle;Max_cycle;Signal;HPM_P1;HPM_P2
2020/12/07 00:00:11;;;;;;;56.03;27.13;;;4.50;99.90;;;;;;5012151;28;20553;-81
2020/12/07 00:02:37;;;;;;;56.40;25.55;;;4.50;99.90;;;;;;5010869;28;20034;-81
2020/12/07 00:05:04;;;;;;;57.25;25.60;;;4.60;99.90;;;;;;5031246;28;20041;-82
2020/12/07 00:07:30;;;;;;;50.53;23.92;;;4.60;99.90;;;;;;5015061;28;20372;-81
2020/12/07 00:09:57;;;;;;;53.85;24.73;;;4.50;99.90;;;;;;5011249;28;20041;-82
2020/12/07 00:12:28;;;;;;;45.67;22.95;;;4.50;99.90;;;;;;5012451;28;20041;-82
2020/12/07 00:14:54;;;;;;;47.72;22.00;;;4.50;99.90;;;;;;5012141;28;20034;-81
2020/12/07 00:17:25;;;;;;;42.65;20.98;;;4.50;99.90;;;;;;5011933;28;20022;-82
2020/12/07 00:19:52;;;;;;;36.28;18.85;;;4.50;99.90;;;;;;5010647;28;20058;-82
2020/12/07 00:22:28;;;;;;;32.72;18.70;;;4.50;99.90;;;;;;5012417;28;20034;-82
2020/12/07 00:24:55;;;;;;;32.70;16.80;;;4.50;99.90;;;;;;5011611;28;20029;-82
2020/12/07 00:27:23;;;;;;;31.00;16.08;;;4.50;99.90;;;;;;5012348;28;20022;-82
2020/12/07 00:29:53;;;;;;;32.00;16.42;;;4.40;99.90;;;;;;5015121;28;20045;-82
2020/12/07 00:32:21;;;;;;;29.08;15.68;;;4.40;99.90;;;;;;5015764;28;20041;-82
2020/12/07 00:34:48;;;;;;;26.85;14.90;;;4.40;99.90;;;;;;5015525;28;20379;-82
2020/12/07 00:37:15;;;;;;;28.55;14.80;;;4.30;99.90;;;;;;5013678;28;20390;-82
2020/12/07 00:39:41;;;;;;;27.67;14.90;;;4.30;99.90;;;;;;5015039;28;20038;-79
2020/12/07 00:42:09;;;;;;;25.67;14.73;;;4.30;99.90;;;;;;5017617;28;20041;-82
2020/12/07 00:44:39;;;;;;;27.42;14.65;;;4.30;99.90;;;;;;5015174;28;20064;-81
2020/12/07 00:47:07;;;;;;;27.70;13.88;;;4.30;99.90;;;;;;5015850;28;20057;-81
2020/12/07 00:49:34;;;;;;;27.27;13.52;;;4.30;99.90;;;;;;5013456;28;20041;-82
2020/12/07 00:52:01;;;;;;;28.90;14.65;;;4.30;99.90;;;;;;4997021;28;20053;-82
2020/12/07 00:54:27;;;;;;;25.67;14.45;;;4.30;99.90;;;;;;4997652;28;20483;-82
2020/12/07 00:56:58;;;;;;;29.30;13.98;;;4.30;99.90;;;;;;5014679;28;20352;-82
2020/12/07 00:59:29;;;;;;;26.23;13.95;;;4.40;99.90;;;;;;4985469;28;20395;-82
2020/12/07 01:01:57;;;;;;;24.85;14.25;;;4.30;99.90;;;;;;5012910;28;20475;-82
2020/12/07 01:04:25;;;;;;;24.30;14.32;;;4.30;99.90;;;;;;4997144;28;20053;-82
2020/12/07 01:06:53;;;;;;;26.67;14.45;;;4.30;99.90;;;;;;4996593;28;20042;-81
2020/12/07 01:09:21;;;;;;;29.98;16.27;;;4.30;99.90;;;;;;4997021;28;20046;-82
2020/12/07 01:11:57;;;;;;;28.23;15.55;;;4.30;99.90;;;;;;5013870;28;20061;-83
2020/12/07 01:14:25;;;;;;;30.02;14.93;;;4.30;99.90;;;;;;4996967;28;20038;-82
2020/12/07 01:16:54;;;;;;;27.90;15.40;;;4.30;99.90;;;;;;4996687;28;20052;-82
2020/12/07 01:19:22;;;;;;;28.20;15.10;;;4.30;99.90;;;;;;5014154;28;20065;-83
2020/12/07 01:21:49;;;;;;;28.75;15.52;;;4.30;99.90;;;;;;4996371;28;20049;-82
2020/12/07 01:24:16;;;;;;;30.08;16.50;;;4.30;99.90;;;;;;4997572;28;20396;-82
2020/12/07 01:26:43;;;;;;;29.35;16.33;;;4.30;99.90;;;;;;4996521;28;20042;-81
2020/12/07 01:29:09;;;;;;;29.40;16.35;;;4.30;99.90;;;;;;5014806;28;20053;-82
2020/12/07 01:31:35;;;;;;;35.63;19.55;;;4.30;99.90;;;;;;5014576;28;20053;-83
2020/12/07 01:34:03;;;;;;;38.90;20.67;;;4.30;99.90;;;;;;4996743;28;20356;-83
2020/12/07 01:36:32;;;;;;;36.25;19.85;;;4.30;99.90;;;;;;4996826;28;20049;-82
2020/12/07 01:38:59;;;;;;;39.78;21.70;;;4.30;99.90;;;;;;4996055;28;20502;-83
2020/12/07 01:41:25;;;;;;;36.53;19.58;;;4.30;99.90;;;;;;5006215;28;20483;-83
2020/12/07 01:43:51;;;;;;;29.98;16.65;;;4.30;99.90;;;;;;5011474;28;20042;-83
2020/12/07 01:46:24;;;;;;;32.75;18.25;;;4.30;99.90;;;;;;4996835;28;20042;-82
2020/12/07 01:48:53;;;;;;;33.60;18.20;;;4.30;99.90;;;;;;4999455;28;20050;-84
2020/12/07 01:51:22;;;;;;;41.42;20.10;;;4.30;99.90;;;;;;5007954;28;20061;-83
2020/12/07 01:53:50;;;;;;;37.15;19.50;;;4.30;99.90;;;;;;4996439;28;20479;-82
2020/12/07 01:56:37;;;;;;;34.75;20.75;;;4.30;99.90;;;;;;5013918;28;20047;-83
2020/12/07 01:59:08;;;;;;;42.72;23.75;;;4.30;99.90;;;;;;4995605;28;20054;-82
2020/12/07 02:01:42;;;;;;;39.90;26.05;;;4.30;99.90;;;;;;4996501;28;20030;-83
2020/12/07 02:04:08;;;;;;;45.03;24.30;;;4.30;99.90;;;;;;4994950;28;20068;-82
2020/12/07 02:06:35;;;;;;;40.45;22.95;;;4.30;99.90;;;;;;4994232;28;20046;-81
2020/12/07 02:09:02;;;;;;;41.08;23.45;;;4.20;99.90;;;;;;4995735;28;20408;-81
2020/12/07 02:11:34;;;;;;;41.72;23.60;;;4.30;99.90;;;;;;5008702;28;20058;-81
2020/12/07 02:14:01;;;;;;;45.83;22.95;;;4.30;99.90;;;;;;4993013;28;20038;-81
2020/12/07 02:16:27;;;;;;;164.80;92.90;;;4.20;99.90;;;;;;4994099;28;20030;-82
2020/12/07 02:18:58;;;;;;;;;;;4.20;99.90;;;;;;4993010;28;20383;-81
2020/12/07 02:21:28;;;;;;;50.92;28.00;;;4.20;99.90;;;;;;4993167;28;19922;-81
2020/12/07 02:24:05;;;;;;;44.70;25.67;;;4.20;99.90;;;;;;4992792;28;20479;-80
2020/12/07 02:26:33;;;;;;;39.30;20.83;;;4.20;99.90;;;;;;4993023;28;20042;-81
2020/12/07 02:29:01;;;;;;;71.22;36.55;;;4.20;99.90;;;;;;4992589;28;20046;-81
2020/12/07 02:31:32;;;;;;;;;;;4.20;99.90;;;;;;4993453;28;20053;-80
2020/12/07 02:33:59;;;;;;;50.15;26.88;;;4.20;99.90;;;;;;5007417;28;19913;-81
2020/12/07 02:36:25;;;;;;;37.10;20.92;;;4.20;99.90;;;;;;4993034;28;20058;-81
2020/12/07 02:38:56;;;;;;;35.00;19.23;;;4.20;99.90;;;;;;4992728;28;20100;-81
2020/12/07 02:41:27;;;;;;;45.40;25.45;;;4.20;99.90;;;;;;4993800;28;20034;-81
2020/12/07 02:43:53;;;;;;;31.67;19.33;;;4.20;99.90;;;;;;4992540;28;20050;-81
2020/12/07 02:46:19;;;;;;;32.97;18.30;;;4.20;99.90;;;;;;4992468;28;20043;-81
2020/12/07 02:48:46;;;;;;;31.77;19.35;;;4.20;99.90;;;;;;4992439;28;20046;-80
2020/12/07 02:51:14;;;;;;;30.00;16.75;;;4.20;99.90;;;;;;4991069;28;20049;-81
2020/12/07 02:53:40;;;;;;;31.70;16.85;;;4.20;99.90;;;;;;4992703;28;20054;-82
2020/12/07 02:56:09;;;;;;;34.92;20.02;;;4.20;99.90;;;;;;4995591;28;20391;-81
2020/12/07 02:58:44;;;;;;;32.35;18.38;;;4.20;99.90;;;;;;5006212;28;20479;-80
2020/12/07 03:01:11;;;;;;;38.53;21.10;;;4.20;99.90;;;;;;4992677;28;20042;-81
2020/12/07 03:03:38;;;;;;;32.63;19.25;;;4.20;99.90;;;;;;4993864;28;20050;-81
2020/12/07 03:06:04;;;;;;;34.15;19.67;;;4.20;99.90;;;;;;4991809;28;20045;-81
2020/12/07 03:08:32;;;;;;;35.58;19.08;;;4.20;99.90;;;;;;4992992;28;20054;-81
2020/12/07 03:10:58;;;;;;;39.58;24.42;;;4.20;99.90;;;;;;5004309;28;20049;-81
2020/12/07 03:13:29;;;;;;;39.53;20.42;;;4.20;99.90;;;;;;5000309;28;20046;-81
2020/12/07 03:16:00;;;;;;;52.50;27.33;;;4.20;99.90;;;;;;4991662;28;20034;-81
2020/12/07 03:18:29;;;;;;;44.58;21.67;;;4.20;99.90;;;;;;4992265;28;20054;-82
2020/12/07 03:21:01;;;;;;;42.83;22.67;;;4.20;99.90;;;;;;4991967;28;20391;-81
2020/12/07 03:23:28;;;;;;;50.42;26.30;;;4.20;99.90;;;;;;4992173;28;20391;-82
2020/12/07 03:25:58;;;;;;;46.25;24.85;;;4.20;99.90;;;;;;4991637;28;20038;-81
2020/12/07 03:28:26;;;;;;;44.25;24.45;;;4.10;99.90;;;;;;4991786;28;20456;-81
2020/12/07 03:30:53;;;;;;;44.95;23.95;;;4.20;99.90;;;;;;4991475;28;20054;-82
2020/12/07 03:33:20;;;;;;;50.42;24.23;;;4.10;99.90;;;;;;4998135;28;20045;-82
2020/12/07 03:35:46;;;;;;;50.92;24.58;;;4.10;99.90;;;;;;5005700;28;20042;-82
2020/12/07 03:38:13;;;;;;;55.03;26.92;;;4.10;99.90;;;;;;4991730;28;20388;-82
2020/12/07 03:40:39;;;;;;;50.80;26.77;;;4.10;99.90;;;;;;4993029;28;20400;-82
2020/12/07 03:43:14;;;;;;;53.90;27.00;;;4.10;99.90;;;;;;4991717;28;20058;-82
2020/12/07 03:45:43;;;;;;;56.28;28.08;;;4.10;99.90;;;;;;4991964;28;20045;-81
2020/12/07 03:48:11;;;;;;;55.83;26.15;;;4.10;99.90;;;;;;5007620;28;20043;-82
2020/12/07 03:50:37;;;;;;;60.47;28.55;;;4.00;99.90;;;;;;4997247;28;20054;-83
2020/12/07 03:53:04;;;;;;;63.17;29.33;;;4.00;99.90;;;;;;5011930;28;20037;-82
2020/12/07 03:55:31;;;;;;;66.15;31.10;;;4.00;99.90;;;;;;4994976;28;20046;-85
2020/12/07 03:58:04;;;;;;;68.72;30.13;;;4.00;99.90;;;;;;4994656;28;20395;-85
2020/12/07 04:00:30;;;;;;;62.33;29.30;;;4.00;99.90;;;;;;4994560;28;20049;-84
2020/12/07 04:03:06;;;;;;;64.88;30.75;;;4.00;99.90;;;;;;4997614;28;20042;-84
2020/12/07 04:05:39;;;;;;;65.00;29.52;;;3.90;99.90;;;;;;5014490;28;20444;-85
2020/12/07 04:08:09;;;;;;;71.95;32.72;;;3.90;99.90;;;;;;4998712;28;20053;-85
2020/12/07 04:10:38;;;;;;;64.50;30.40;;;3.90;99.90;;;;;;5013598;28;20046;-84
2020/12/07 04:13:05;;;;;;;66.43;30.23;;;3.90;99.90;;;;;;5015614;28;20045;-85
2020/12/07 04:15:33;;;;;;;68.18;30.27;;;3.90;99.90;;;;;;5015744;28;20046;-84
2020/12/07 04:17:59;;;;;;;64.38;31.30;;;3.90;99.90;;;;;;5015948;28;20038;-84
2020/12/07 04:20:26;;;;;;;70.43;31.75;;;3.90;99.90;;;;;;5015487;28;20053;-85
2020/12/07 04:22:52;;;;;;;69.38;32.00;;;3.90;99.90;;;;;;5015607;28;20383;-84
2020/12/07 04:25:18;;;;;;;68.03;31.88;;;3.90;99.90;;;;;;5015756;28;20452;-85
2020/12/07 04:27:45;;;;;;;71.53;32.33;;;3.90;99.90;;;;;;5015986;28;20038;-80
2020/12/07 04:30:11;;;;;;;67.50;32.97;;;3.80;99.90;;;;;;5015449;28;20394;-85
2020/12/07 04:32:37;;;;;;;71.43;30.27;;;3.80;99.90;;;;;;5015727;28;20033;-84
2020/12/07 04:35:03;;;;;;;63.92;30.58;;;3.80;99.90;;;;;;5014824;28;20037;-84
2020/12/07 04:37:30;;;;;;;65.60;28.63;;;3.80;99.90;;;;;;5014309;28;20050;-84
2020/12/07 04:39:56;;;;;;;63.75;30.27;;;3.80;99.90;;;;;;5015269;28;20467;-84
2020/12/07 04:42:24;;;;;;;60.90;29.77;;;3.80;99.90;;;;;;5015498;28;20033;-84
2020/12/07 04:44:50;;;;;;;74.72;31.67;;;3.80;99.90;;;;;;5014665;28;20045;-84
2020/12/07 04:47:18;;;;;;;70.95;30.60;;;3.80;99.90;;;;;;5015301;28;20030;-84
2020/12/07 04:49:45;;;;;;;70.68;31.35;;;3.80;99.90;;;;;;5015087;28;20032;-84
2020/12/07 04:52:13;;;;;;;65.50;29.92;;;3.80;99.90;;;;;;5015502;28;20050;-84
2020/12/07 04:54:46;;;;;;;66.30;29.20;;;3.80;99.90;;;;;;5015133;28;20034;-84
2020/12/07 04:57:14;;;;;;;63.10;30.63;;;3.80;99.90;;;;;;5015481;28;20367;-84
2020/12/07 04:59:41;;;;;;;62.85;28.85;;;3.80;99.90;;;;;;5015240;28;20038;-84
2020/12/07 05:02:09;;;;;;;64.38;30.58;;;3.80;99.90;;;;;;5015041;28;20049;-84
2020/12/07 05:04:36;;;;;;;60.20;28.83;;;3.80;99.90;;;;;;5014984;28;20061;-84
2020/12/07 05:07:09;;;;;;;62.63;28.15;;;3.80;99.90;;;;;;5014647;28;20026;-84
2020/12/07 05:09:37;;;;;;;58.40;28.38;;;3.80;99.90;;;;;;5015009;28;20382;-83
2020/12/07 05:12:15;;;;;;;54.63;26.42;;;3.80;99.90;;;;;;5014671;28;20386;-84
2020/12/07 05:14:43;;;;;;;54.75;27.80;;;3.80;99.90;;;;;;5013815;28;20046;-84
2020/12/07 05:17:09;;;;;;;54.78;28.10;;;3.80;99.90;;;;;;5014538;28;20479;-84
2020/12/07 05:19:35;;;;;;;56.13;27.23;;;3.80;99.90;;;;;;5014582;28;20038;-83
2020/12/07 05:22:02;;;;;;;57.20;27.77;;;3.70;99.90;;;;;;5013683;28;20037;-83
2020/12/07 05:24:28;;;;;;;56.60;26.70;;;3.70;99.90;;;;;;5014568;28;20470;-83
2020/12/07 05:26:54;;;;;;;54.83;27.02;;;3.80;99.90;;;;;;5013940;28;20030;-84
2020/12/07 05:29:32;;;;;;;57.22;26.80;;;3.70;99.90;;;;;;5014771;28;20037;-84
2020/12/07 05:31:59;;;;;;;56.20;26.65;;;3.70;99.90;;;;;;5014555;28;20037;-84
2020/12/07 05:34:25;;;;;;;57.38;25.13;;;3.70;99.90;;;;;;5012493;28;20034;-84
2020/12/07 05:36:56;;;;;;;50.78;25.42;;;3.70;99.90;;;;;;4996684;28;20049;-84
2020/12/07 05:39:25;;;;;;;50.38;24.10;;;3.70;99.90;;;;;;5015154;28;20045;-84
2020/12/07 05:41:54;;;;;;;50.08;24.30;;;3.70;99.90;;;;;;5013348;28;20041;-84
2020/12/07 05:44:21;;;;;;;46.97;23.73;;;3.70;99.90;;;;;;5019642;28;20052;-85
2020/12/07 05:46:52;;;;;;;40.30;21.08;;;3.60;99.90;;;;;;5040191;28;20021;-84
2020/12/07 05:49:19;;;;;;;42.25;21.38;;;3.70;99.90;;;;;;5014010;28;20041;-85
2020/12/07 05:51:56;;;;;;;46.42;21.38;;;3.60;99.90;;;;;;5013805;28;20514;-84
2020/12/07 05:54:23;;;;;;;40.15;20.10;;;3.60;99.90;;;;;;5014232;28;20034;-83
2020/12/07 05:56:54;;;;;;;41.53;20.10;;;3.60;99.90;;;;;;5013910;28;20497;-83
2020/12/07 05:59:31;;;;;;;39.50;18.98;;;3.60;99.90;;;;;;5025226;28;20048;-83
2020/12/07 06:01:59;;;;;;;40.85;20.45;;;3.60;99.90;;;;;;4996261;28;20096;-82
2020/12/07 06:04:29;;;;;;;37.55;19.70;;;3.60;99.90;;;;;;5013728;28;20034;-81
2020/12/07 06:07:02;;;;;;;38.03;18.58;;;3.60;99.90;;;;;;5013249;28;20034;-81
2020/12/07 06:09:31;;;;;;;36.05;18.15;;;3.60;99.90;;;;;;5023104;28;20029;-81
2020/12/07 06:12:14;;;;;;;39.38;19.23;;;3.60;99.90;;;;;;5039013;28;20021;-80
2020/12/07 06:14:42;;;;;;;39.50;18.35;;;3.60;99.90;;;;;;5038238;28;20459;-81
2020/12/07 06:17:11;;;;;;;37.85;18.85;;;3.50;99.90;;;;;;5039569;28;20025;-80
2020/12/07 06:19:39;;;;;;;42.88;19.58;;;3.50;99.90;;;;;;5047783;28;20040;-80
2020/12/07 06:22:07;;;;;;;36.40;18.85;;;3.50;99.90;;;;;;5052756;28;20037;-82
2020/12/07 06:24:38;;;;;;;34.95;18.75;;;3.50;99.90;;;;;;5015122;28;20037;-84
2020/12/07 06:27:13;;;;;;;31.35;16.95;;;3.50;99.90;;;;;;5012487;28;20059;-83
2020/12/07 06:29:55;;;;;;;33.42;17.27;;;3.50;99.90;;;;;;5013646;28;20499;-83
2020/12/07 06:32:22;;;;;;;33.28;17.17;;;3.50;99.90;;;;;;5011765;28;20042;-83
2020/12/07 06:34:57;;;;;;;44.05;23.05;;;3.50;99.90;;;;;;5012657;28;20028;-81
2020/12/07 06:37:25;;;;;;;60.50;29.17;;;3.50;99.90;;;;;;5023111;28;20034;-83
2020/12/07 06:39:58;;;;;;;70.05;34.80;;;3.50;99.90;;;;;;5012838;28;20045;-83
2020/12/07 06:42:27;;;;;;;59.92;28.02;;;3.50;99.90;;;;;;5013173;28;20460;-83
2020/12/07 06:44:53;;;;;;;217.18;97.82;;;3.50;99.90;;;;;;5012742;28;20022;-83
2020/12/07 06:47:25;;;;;;;83.72;40.53;;;3.50;99.90;;;;;;5012695;28;20399;-83
2020/12/07 06:50:01;;;;;;;99.90;46.00;;;3.50;99.90;;;;;;5013444;28;20037;-83
2020/12/07 06:52:35;;;;;;;97.80;45.97;;;3.60;99.90;;;;;;5006705;28;20054;-83
2020/12/07 06:55:12;;;;;;;64.05;33.35;;;3.60;99.90;;;;;;5002956;28;20418;-82
2020/12/07 06:57:44;;;;;;;223.68;100.65;;;3.60;99.90;;;;;;4993097;28;20444;-83
2020/12/07 07:00:20;;;;;;;208.55;93.30;;;3.60;99.90;;;;;;4992606;28;20038;-80
2020/12/07 07:02:51;;;;;;;335.48;138.73;;;3.60;99.90;;;;;;4993468;28;20026;-82
2020/12/07 07:05:19;;;;;;;;;;;3.60;99.90;;;;;;4993961;28;20039;-83
2020/12/07 07:07:46;;;;;;;58.83;29.33;;;3.60;99.90;;;;;;4998250;28;19910;-81
2020/12/07 07:10:16;;;;;;;138.98;58.33;;;3.60;99.90;;;;;;4994121;28;20360;-81
2020/12/07 07:12:44;;;;;;;126.85;55.80;;;3.60;99.90;;;;;;5014237;28;20385;-79
2020/12/07 07:15:12;;;;;;;324.35;116.07;;;3.60;99.90;;;;;;5006057;28;20474;-78
2020/12/07 07:17:40;;;;;;;136.82;56.78;;;3.60;99.90;;;;;;4992739;28;20027;-79
2020/12/07 07:20:10;;;;;;;50.15;24.25;;;3.70;99.90;;;;;;4992146;28;20270;-79
2020/12/07 07:22:41;;;;;;;75.45;31.92;;;3.70;99.90;;;;;;4992866;28;20038;-80
2020/12/07 07:30:19;;;;;;;84.40;37.70;;;3.70;99.90;;;;;;4992751;28;20045;-79
2020/12/07 07:32:47;;;;;;;79.70;33.92;;;3.70;99.90;;;;;;4999446;28;20035;-79
2020/12/07 07:35:16;;;;;;;148.32;60.55;;;3.80;99.90;;;;;;4992305;28;20030;-79
2020/12/07 07:37:42;;;;;;;68.93;32.63;;;3.80;99.90;;;;;;4997982;28;20057;-80
2020/12/07 07:40:10;;;;;;;69.97;34.60;;;3.70;99.90;;;;;;4999056;28;20042;-80
2020/12/07 07:42:48;;;;;;;32.63;18.02;;;3.80;99.90;;;;;;5000111;28;20046;-80
2020/12/07 07:45:17;;;;;;;68.22;32.17;;;3.80;99.90;;;;;;5005766;28;20042;-84
2020/12/07 08:15:30;;;;;;;66.40;33.90;;;4.10;99.90;;;;;;5044719;28;20462;-80
2020/12/07 08:17:59;;;;;;;47.38;25.88;;;4.20;99.90;;;;;;5041225;28;20037;-81
2020/12/07 08:20:29;;;;;;;39.20;22.00;;;4.20;99.90;;;;;;5017630;28;20479;-81
2020/12/07 08:22:57;;;;;;;36.38;19.88;;;4.20;99.90;;;;;;5036307;28;20040;-80
2020/12/07 08:25:45;;;;;;;48.45;25.88;;;4.30;99.90;;;;;;5033050;28;20041;-81
2020/12/07 08:28:23;;;;;;;53.60;28.05;;;4.30;99.90;;;;;;5010026;28;20059;-82
2020/12/07 08:31:09;;;;;;;50.85;27.33;;;4.40;99.90;;;;;;5000757;28;20498;-79
2020/12/07 08:33:38;;;;;;;67.63;36.05;;;4.50;99.90;;;;;;5031905;28;20399;-82
2020/12/07 08:36:06;;;;;;;59.05;30.13;;;4.50;99.90;;;;;;5016887;28;20632;-82
2020/12/07 08:38:38;;;;;;;35.85;20.80;;;4.60;99.90;;;;;;5017651;28;20037;-81
2020/12/07 08:41:06;;;;;;;39.50;22.30;;;4.70;99.90;;;;;;5036343;28;20037;-82
2020/12/07 08:43:33;;;;;;;38.78;20.50;;;4.70;99.90;;;;;;5045983;28;20038;-82
2020/12/07 08:45:59;;;;;;;30.67;18.73;;;4.80;99.90;;;;;;5043162;28;20041;-82
2020/12/07 08:48:25;;;;;;;33.70;19.85;;;4.90;99.90;;;;;;5039441;28;20030;-82
2020/12/07 08:50:55;;;;;;;42.83;26.38;;;5.10;99.90;;;;;;5015170;28;20054;-80
2020/12/07 08:53:22;;;;;;;34.95;21.25;;;5.20;99.90;;;;;;5020208;28;20052;-80
2020/12/07 08:55:49;;;;;;;31.02;18.45;;;5.20;99.90;;;;;;5031599;28;20032;-80
2020/12/07 08:58:15;;;;;;;24.65;12.95;;;5.30;99.90;;;;;;5029253;28;20029;-81
2020/12/07 09:00:42;;;;;;;25.48;13.65;;;5.50;99.90;;;;;;5039621;28;20053;-83
2020/12/07 09:03:09;;;;;;;25.00;14.05;;;5.60;99.90;;;;;;4992158;28;20443;-82
2020/12/07 09:05:37;;;;;;;18.45;12.02;;;5.60;99.90;;;;;;5041177;28;20037;-83
2020/12/07 09:08:05;;;;;;;18.92;11.93;;;5.80;99.90;;;;;;5037875;28;20029;-83
2020/12/07 09:10:31;;;;;;;18.70;12.02;;;5.70;99.90;;;;;;5039490;28;20048;-84
2020/12/07 09:12:57;;;;;;;24.08;12.00;;;5.70;99.90;;;;;;5041523;28;20350;-84
2020/12/07 09:15:24;;;;;;;18.55;11.82;;;5.60;99.90;;;;;;5042427;28;20041;-83
2020/12/07 09:17:50;;;;;;;24.45;14.35;;;5.50;99.90;;;;;;5032262;28;20386;-83
2020/12/07 09:20:17;;;;;;;23.83;13.75;;;5.60;99.90;;;;;;5003511;28;20054;-80
2020/12/07 09:22:43;;;;;;;20.40;12.38;;;5.60;99.90;;;;;;5014040;28;20057;-78
2020/12/07 09:25:09;;;;;;;21.33;12.00;;;5.50;99.90;;;;;;5032752;28;20029;-79
2020/12/07 09:27:35;;;;;;;20.38;11.93;;;5.50;99.90;;;;;;5014206;28;20038;-81
2020/12/07 09:30:02;;;;;;;22.30;11.68;;;5.60;99.90;;;;;;5013298;28;20091;-80
2020/12/07 09:32:28;;;;;;;19.95;11.60;;;5.60;99.90;;;;;;5014272;28;20030;-79
2020/12/07 09:34:55;;;;;;;19.67;11.35;;;5.70;99.90;;;;;;5013631;28;20030;-82
2020/12/07 09:37:21;;;;;;;18.58;11.20;;;5.80;99.90;;;;;;5014124;28;20494;-78
2020/12/07 09:39:47;;;;;;;21.13;11.85;;;5.80;99.90;;;;;;5014228;28;20034;-80
2020/12/07 09:42:14;;;;;;;20.83;11.95;;;5.90;99.90;;;;;;5013754;28;20460;-80
2020/12/07 09:44:40;;;;;;;17.25;10.68;;;5.90;99.90;;;;;;5014301;28;20030;-81
2020/12/07 09:47:06;;;;;;;18.75;10.80;;;5.80;99.90;;;;;;4996480;28;20061;-81
2020/12/07 09:49:33;;;;;;;17.17;11.23;;;5.80;99.90;;;;;;5014425;28;20045;-80
2020/12/07 09:51:59;;;;;;;19.88;11.20;;;5.70;99.90;;;;;;5013663;28;20054;-80
2020/12/07 09:54:25;;;;;;;20.10;11.77;;;5.80;99.90;;;;;;5014091;28;20387;-80
2020/12/07 09:56:52;;;;;;;18.10;10.02;;;5.80;99.90;;;;;;5013286;28;20038;-79
2020/12/07 09:59:18;;;;;;;16.55;10.90;;;5.90;99.90;;;;;;5013751;28;20048;-79
2020/12/07 10:01:44;;;;;;;14.60;8.73;;;5.80;99.90;;;;;;5013849;28;20042;-79
2020/12/07 10:04:10;;;;;;;16.13;10.15;;;5.80;99.90;;;;;;5025054;28;20049;-78
2020/12/07 10:06:37;;;;;;;16.58;10.85;;;5.70;99.90;;;;;;5013619;28;20022;-78
2020/12/07 10:09:03;;;;;;;16.13;10.15;;;5.80;99.90;;;;;;5013350;28;20026;-78
2020/12/07 10:11:29;;;;;;;18.20;10.50;;;5.70;99.90;;;;;;5013790;28;20042;-77
2020/12/07 10:13:55;;;;;;;18.48;10.40;;;5.70;99.90;;;;;;5013274;28;20123;-77
2020/12/07 10:16:21;;;;;;;18.05;10.02;;;5.70;99.90;;;;;;5012563;28;20064;-76
2020/12/07 10:18:48;;;;;;;15.52;10.15;;;5.60;99.90;;;;;;5013262;28;20037;-77
2020/12/07 10:21:14;;;;;;;15.93;9.35;;;5.40;99.90;;;;;;5013079;28;20049;-76
2020/12/07 10:23:40;;;;;;;18.45;11.27;;;5.30;99.90;;;;;;5013381;28;20056;-77
2020/12/07 10:26:06;;;;;;;17.60;11.10;;;5.30;99.90;;;;;;5013274;28;20042;-76
2020/12/07 10:28:36;;;;;;;16.10;10.45;;;5.30;99.90;;;;;;5013374;28;20387;-76
2020/12/07 10:31:02;;;;;;;19.17;10.93;;;5.30;99.90;;;;;;5012466;28;20390;-78
2020/12/07 10:33:28;;;;;;;19.55;11.57;;;5.40;99.90;;;;;;5013690;28;20026;-78
2020/12/07 10:35:55;;;;;;;17.52;11.20;;;5.40;99.90;;;;;;5012865;28;20030;-78
2020/12/07 10:38:21;;;;;;;19.55;11.02;;;5.50;99.90;;;;;;5013081;28;20041;-79
2020/12/07 10:40:47;;;;;;;21.63;10.98;;;5.50;99.90;;;;;;5013106;28;20399;-80
2020/12/07 10:43:13;;;;;;;19.05;12.32;;;5.50;99.90;;;;;;4995572;28;20419;-79
2020/12/07 10:45:40;;;;;;;23.08;13.75;;;5.60;99.90;;;;;;4995522;28;20060;-77
2020/12/07 10:48:06;;;;;;;19.80;11.95;;;5.80;99.90;;;;;;5012746;28;20053;-80
2020/12/07 10:50:33;;;;;;;18.80;10.00;;;5.90;99.90;;;;;;5012427;28;20037;-78
2020/12/07 10:53:00;;;;;;;16.10;9.35;;;5.90;99.90;;;;;;5012814;28;20041;-79
2020/12/07 10:55:26;;;;;;;18.15;10.70;;;5.90;99.90;;;;;;5012965;28;20033;-78
2020/12/07 10:57:52;;;;;;;16.02;9.80;;;5.90;99.90;;;;;;5012630;28;20034;-77
2020/12/07 11:00:19;;;;;;;13.55;9.43;;;5.90;99.90;;;;;;5013009;28;20033;-76
2020/12/07 11:02:45;;;;;;;14.45;10.35;;;5.80;99.90;;;;;;5024763;28;20364;-75
2020/12/07 11:05:12;;;;;;;17.23;9.50;;;5.80;99.90;;;;;;5011372;28;20050;-76
2020/12/07 11:07:39;;;;;;;16.15;9.55;;;5.90;99.90;;;;;;5009765;28;20033;-76
2020/12/07 11:10:05;;;;;;;14.50;8.73;;;5.70;99.90;;;;;;4994672;28;20038;-76
2020/12/07 11:12:31;;;;;;;16.08;10.10;;;5.70;99.90;;;;;;5012239;28;20364;-76
2020/12/07 11:14:58;;;;;;;20.50;13.27;;;5.70;99.90;;;;;;4994155;28;20042;-76
2020/12/07 11:17:24;;;;;;;18.45;11.15;;;5.70;99.90;;;;;;5012201;28;20026;-76
2020/12/07 11:19:50;;;;;;;19.35;10.93;;;5.60;99.90;;;;;;5011974;28;20041;-76
2020/12/07 11:22:17;;;;;;;19.50;10.90;;;5.70;99.90;;;;;;5012036;28;20038;-82
2020/12/07 11:24:43;;;;;;;22.50;13.85;;;5.60;99.90;;;;;;5012700;28;20037;-82
2020/12/07 11:27:09;;;;;;;60.40;38.00;;;5.50;99.90;;;;;;5011956;28;20029;-81
2020/12/07 11:29:35;;;;;;;113.85;76.00;;;5.60;99.90;;;;;;5012695;28;20025;-83
2020/12/07 11:32:02;;;;;;;28.23;19.15;;;5.60;99.90;;;;;;5002303;28;20049;-83
2020/12/07 11:34:28;;;;;;;29.92;22.77;;;5.60;99.90;;;;;;5030968;28;20025;-82
2020/12/07 11:36:55;;;;;;;58.75;44.88;;;5.60;99.90;;;;;;5018882;28;20041;-77
2020/12/07 11:42:29;;;;;;;20.88;12.93;;;5.70;99.90;;;;;;5011971;28;20042;-84
2020/12/07 11:44:57;;;;;;;19.38;14.05;;;5.70;99.90;;;;;;5011823;28;20053;-80
2020/12/07 11:47:23;;;;;;;21.52;14.77;;;5.70;99.90;;;;;;5012925;28;20042;-83
2020/12/07 11:49:50;;;;;;;21.27;12.88;;;5.90;99.90;;;;;;5013231;28;20375;-83
2020/12/07 11:52:17;;;;;;;26.15;14.38;;;6.00;99.90;;;;;;4993657;28;20060;-81
2020/12/07 11:54:43;;;;;;;30.98;18.45;;;6.00;99.90;;;;;;5020317;28;20044;-84
2020/12/07 11:57:09;;;;;;;25.70;15.10;;;6.20;99.90;;;;;;5016675;28;20491;-78
2020/12/07 11:59:36;;;;;;;19.52;12.60;;;6.40;99.90;;;;;;5012089;28;20034;-77
2020/12/07 12:02:04;;;;;;;21.23;12.45;;;6.40;99.90;;;;;;5011689;28;20042;-77
2020/12/07 12:04:31;;;;;;;27.70;16.35;;;6.40;99.90;;;;;;4994949;28;20034;-79
2020/12/07 12:06:57;;;;;;;16.77;9.85;;;6.30;99.90;;;;;;5019838;28;20112;-78
2020/12/07 12:09:23;;;;;;;15.07;9.80;;;6.10;99.90;;;;;;5037068;28;20038;-80
2020/12/07 12:11:49;;;;;;;30.52;18.67;;;6.00;99.90;;;;;;5021222;28;20132;-80
2020/12/07 12:14:16;;;;;;;37.88;20.92;;;6.00;99.90;;;;;;5013325;28;20084;-80
2020/12/07 12:16:42;;;;;;;16.77;11.77;;;5.90;99.90;;;;;;5011521;28;20045;-80
2020/12/07 12:19:11;;;;;;;15.32;10.90;;;5.90;99.90;;;;;;4994464;28;20049;-80
2020/12/07 12:21:38;;;;;;;18.55;12.90;;;5.90;99.90;;;;;;5013399;28;20049;-79
2020/12/07 12:24:05;;;;;;;17.42;11.57;;;6.00;99.90;;;;;;5036945;28;20458;-78
2020/12/07 12:26:34;;;;;;;18.15;11.93;;;6.00;99.90;;;;;;5040919;28;20348;-79
2020/12/07 12:29:01;;;;;;;23.00;13.35;;;5.80;99.90;;;;;;5041093;28;20029;-79
2020/12/07 12:31:27;;;;;;;18.67;12.35;;;5.80;99.90;;;;;;5044035;28;20029;-79
2020/12/07 12:33:55;;;;;;;19.13;12.10;;;5.80;99.90;;;;;;5039315;28;20151;-77
2020/12/07 12:36:27;;;;;;;17.98;11.98;;;5.90;99.90;;;;;;5025547;28;20041;-83
2020/12/07 12:38:55;;;;;;;18.27;11.90;;;6.00;99.90;;;;;;5037398;28;20478;-82
2020/12/07 12:41:22;;;;;;;17.25;11.82;;;6.00;99.90;;;;;;5028448;28;20049;-84
2020/12/07 12:43:48;;;;;;;17.67;11.48;;;5.90;99.90;;;;;;5048306;28;20033;-85
2020/12/07 12:46:15;;;;;;;17.58;11.32;;;5.80;99.90;;;;;;5035098;28;20021;-83
2020/12/07 12:48:42;;;;;;;18.42;11.88;;;5.90;99.90;;;;;;5039985;28;20044;-82
2020/12/07 12:51:10;;;;;;;19.95;12.52;;;5.80;99.90;;;;;;5040225;28;20054;-83
2020/12/07 12:53:36;;;;;;;19.10;12.50;;;6.00;99.90;;;;;;5040642;28;20112;-83
2020/12/07 12:56:07;;;;;;;19.80;12.38;;;5.90;99.90;;;;;;5039569;28;20052;-84
2020/12/07 12:58:34;;;;;;;21.25;12.68;;;5.90;99.90;;;;;;5041309;28;20030;-82
2020/12/07 13:01:02;;;;;;;23.02;13.90;;;6.00;99.90;;;;;;5041094;28;20038;-84
2020/12/07 13:03:28;;;;;;;103.43;52.80;;;5.90;99.90;;;;;;5040760;28;20029;-83
2020/12/07 13:05:55;;;;;;;82.60;45.65;;;6.00;99.90;;;;;;5036826;28;20041;-78
2020/12/07 13:08:21;;;;;;;34.35;21.98;;;6.10;99.90;;;;;;5040419;28;20485;-82
2020/12/07 13:10:49;;;;;;;37.30;25.42;;;6.10;99.90;;;;;;5040705;28;20029;-84
2020/12/07 13:13:16;;;;;;;29.38;19.58;;;6.20;99.90;;;;;;5035308;28;20028;-85
2020/12/07 13:16:00;;;;;;;23.67;16.10;;;6.20;99.90;;;;;;5011109;28;20038;-84
2020/12/07 13:18:32;;;;;;;23.75;15.05;;;6.10;99.90;;;;;;5012560;28;20029;-84